Time;durP1;ratioP1;P1;durP2;ratioP2;P2;SDS_P1;SDS_P2;PMS_P1;PMS_P2;Temp;Humidity;BMP_temperature;BMP_pressure;BME280_temperature;BME280_humidity;BME280_pressure;Samples;Min_cycle;Max_cycle;Signal;HPM_P1;HPM_P2
2023/01/29 00:00:09;;;;;;;16.25;10.48;;;7.70;63.80;;;;;;6246772;23;20004;-88
2023/01/29 00:02:37;;;;;;;17.27;10.43;;;7.70;63.40;;;;;;6247421;23;20024;-88
2023/01/29 00:05:05;;;;;;;16.73;9.57;;;7.70;63.40;;;;;;6247139;23;20000;-88
2023/01/29 00:07:31;;;;;;;14.82;8.98;;;7.60;63.70;;;;;;6246273;23;20027;-88
2023/01/29 00:09:57;;;;;;;16.00;9.40;;;7.70;63.80;;;;;;6246442;23;20000;-88
2023/01/29 00:12:22;;;;;;;15.27;9.50;;;7.60;63.40;;;;;;6245679;23;20079;-89
2023/01/29 00:14:48;;;;;;;16.17;9.68;;;7.60;63.90;;;;;;6219435;23;20004;-87
2023/01/29 00:17:14;;;;;;;13.93;9.00;;;7.60;63.90;;;;;;6246662;23;20363;-88
2023/01/29 00:19:40;;;;;;;14.05;9.02;;;7.60;64.20;;;;;;6246631;23;19992;-89
2023/01/29 00:22:05;;;;;;;16.08;9.60;;;7.60;63.60;;;;;;6246014;23;20011;-89
2023/01/29 00:24:31;;;;;;;14.70;9.45;;;7.60;63.90;;;;;;6246391;23;20006;-89
2023/01/29 00:26:56;;;;;;;15.48;9.27;;;7.60;63.90;;;;;;6246665;23;19996;-89
2023/01/29 00:29:24;;;;;;;22.73;9.35;;;7.60;63.70;;;;;;6245852;23;20004;-85
2023/01/29 00:31:49;;;;;;;16.63;8.85;;;7.60;64.20;;;;;;6218275;23;20426;-85
2023/01/29 00:34:15;;;;;;;15.93;9.52;;;7.60;64.00;;;;;;6243710;23;20004;-78
2023/01/29 00:36:43;;;;;;;13.75;8.57;;;7.60;63.90;;;;;;6245805;23;20395;-85
2023/01/29 00:39:09;;;;;;;15.00;8.35;;;7.60;63.90;;;;;;6244604;23;20008;-85
2023/01/29 00:47:29;;;;;;;13.38;7.90;;;7.60;64.20;;;;;;6245559;23;20031;-83
2023/01/29 00:49:53;;;;;;;12.75;7.80;;;7.60;64.10;;;;;;6243417;23;20425;-85
2023/01/29 00:52:25;;;;;;;14.70;8.82;;;7.60;64.20;;;;;;6245656;23;20016;-85
2023/01/29 00:54:52;;;;;;;14.50;9.15;;;7.60;64.10;;;;;;6244798;23;20000;-85
2023/01/29 00:57:18;;;;;;;18.52;9.23;;;7.60;64.50;;;;;;6245947;23;20064;-85
2023/01/29 00:59:43;;;;;;;13.63;8.77;;;7.60;64.60;;;;;;6244457;23;20429;-85
2023/01/29 01:04:54;;;;;;;14.38;8.40;;;7.50;64.50;;;;;;6243642;23;20081;-85
2023/01/29 01:07:20;;;;;;;15.60;9.30;;;7.50;64.10;;;;;;6246325;23;20449;-88
2023/01/29 01:12:30;;;;;;;19.27;11.52;;;7.60;64.40;;;;;;6245686;23;20358;-86
2023/01/29 01:14:55;;;;;;;16.00;9.05;;;7.50;64.60;;;;;;6245158;23;19992;-88
2023/01/29 01:17:21;;;;;;;15.02;10.05;;;7.50;64.20;;;;;;6245732;23;20023;-87
2023/01/29 01:19:47;;;;;;;17.73;9.98;;;7.50;64.90;;;;;;6243277;23;20038;-87
2023/01/29 01:22:13;;;;;;;15.85;9.70;;;7.50;64.40;;;;;;6245339;23;20007;-88
2023/01/29 01:24:39;;;;;;;17.60;10.38;;;7.50;64.60;;;;;;6245186;23;20058;-89
2023/01/29 01:27:05;;;;;;;14.02;9.40;;;7.40;64.90;;;;;;6246553;23;20032;-88
2023/01/29 01:29:31;;;;;;;15.27;9.57;;;7.50;64.40;;;;;;6245927;23;20004;-89
2023/01/29 01:31:58;;;;;;;18.23;10.23;;;7.50;64.80;;;;;;6218420;23;20087;-87
2023/01/29 01:34:25;;;;;;;15.48;9.43;;;7.50;64.80;;;;;;6245916;23;20011;-87
2023/01/29 01:36:52;;;;;;;13.38;8.07;;;7.40;64.80;;;;;;6246551;23;20402;-86
2023/01/29 01:39:17;;;;;;;15.73;9.25;;;7.40;64.70;;;;;;6241495;23;20000;-86
2023/01/29 01:41:43;;;;;;;14.32;8.38;;;7.40;64.70;;;;;;6244150;23;20058;-86
2023/01/29 01:44:46;;;;;;;14.10;8.70;;;7.40;64.40;;;;;;6241739;23;20011;-87
2023/01/29 01:47:14;;;;;;;13.38;9.13;;;7.40;64.90;;;;;;6245802;23;20084;-86
2023/01/29 01:49:40;;;;;;;14.23;9.07;;;7.40;65.00;;;;;;6245026;23;20004;-86
2023/01/29 01:52:07;;;;;;;13.85;8.73;;;7.40;64.80;;;;;;6245826;23;20012;-86
2023/01/29 01:54:33;;;;;;;15.27;9.07;;;7.40;64.70;;;;;;6245083;23;20373;-86
2023/01/29 01:57:15;;;;;;;13.13;8.15;;;7.40;64.80;;;;;;6245126;23;20028;-85
2023/01/29 01:59:47;;;;;;;15.02;9.13;;;7.40;65.00;;;;;;6244072;23;20000;-85
2023/01/29 02:10:38;;;;;;;17.75;9.73;;;7.30;64.30;;;;;;6245220;23;20019;-86
2023/01/29 02:13:06;;;;;;;15.82;9.43;;;7.30;64.30;;;;;;6246074;23;20031;-86
2023/01/29 02:15:32;;;;;;;16.60;9.68;;;7.20;64.20;;;;;;6244263;23;20024;-86
2023/01/29 02:17:58;;;;;;;16.33;9.65;;;7.30;64.60;;;;;;6246543;23;19996;-85
2023/01/29 02:20:27;;;;;;;15.38;9.25;;;7.30;64.60;;;;;;6240895;23;20102;-86
2023/01/29 02:23:22;;;;;;;14.57;9.48;;;7.20;64.60;;;;;;6246136;23;20000;-86
2023/01/29 02:26:13;;;;;;;15.38;10.02;;;7.20;64.60;;;;;;6242497;23;20433;-87
2023/01/29 02:28:57;;;;;;;16.92;11.27;;;7.20;64.20;;;;;;6243906;23;20000;-86
2023/01/29 02:31:40;;;;;;;16.42;9.73;;;7.20;64.70;;;;;;6245317;23;20009;-84
2023/01/29 02:34:10;;;;;;;15.73;9.68;;;7.20;64.60;;;;;;6244591;23;20039;-83
2023/01/29 02:36:45;;;;;;;18.33;9.98;;;7.20;64.60;;;;;;6245267;23;20091;-84
2023/01/29 02:39:35;;;;;;;15.43;9.88;;;7.20;65.00;;;;;;6244892;23;20075;-84
2023/01/29 02:42:16;;;;;;;16.45;10.05;;;7.20;65.00;;;;;;6218925;23;20020;-84
2023/01/29 02:45:10;;;;;;;17.38;10.07;;;7.10;64.80;;;;;;6244732;23;20000;-85
2023/01/29 02:47:52;;;;;;;17.13;9.90;;;7.10;64.40;;;;;;6240018;23;20004;-85
2023/01/29 02:50:24;;;;;;;20.17;12.23;;;7.10;64.80;;;;;;6244242;23;20084;-86
2023/01/29 02:53:43;;;;;;;16.52;10.38;;;7.10;64.20;;;;;;6245399;23;20024;-86
2023/01/29 02:56:20;;;;;;;18.00;10.90;;;7.10;64.60;;;;;;6207415;23;20004;-86
2023/01/29 02:58:59;;;;;;;17.08;10.45;;;7.10;64.20;;;;;;6243840;23;20083;-85
2023/01/29 03:01:42;;;;;;;16.77;10.35;;;7.10;64.60;;;;;;6245189;23;20001;-85
2023/01/29 03:04:13;;;;;;;16.00;10.95;;;7.00;64.20;;;;;;6244546;23;20554;-85
2023/01/29 03:06:45;;;;;;;17.52;10.93;;;7.00;64.60;;;;;;6243911;23;20027;-86
2023/01/29 03:09:23;;;;;;;17.85;11.52;;;7.00;64.70;;;;;;6244815;23;20027;-86
2023/01/29 03:11:52;;;;;;;18.90;10.98;;;7.00;64.80;;;;;;6244434;23;20302;-86
2023/01/29 03:14:25;;;;;;;21.50;11.00;;;7.00;64.90;;;;;;6241969;23;20001;-86
2023/01/29 03:16:52;;;;;;;18.55;10.73;;;7.00;64.90;;;;;;6244725;23;19996;-87
2023/01/29 03:19:40;;;;;;;20.63;11.98;;;6.90;64.80;;;;;;6243247;23;20414;-87
2023/01/29 03:22:08;;;;;;;18.60;11.15;;;6.90;65.30;;;;;;6243641;23;20004;-85
2023/01/29 03:33:17;;;;;;;18.98;11.80;;;6.90;64.50;;;;;;6245058;23;20027;-87
2023/01/29 03:35:51;;;;;;;20.45;11.60;;;6.90;64.80;;;;;;6246029;23;20000;-87
2023/01/29 03:38:18;;;;;;;17.10;10.77;;;6.90;64.80;;;;;;6245185;23;20050;-87
2023/01/29 03:40:52;;;;;;;18.38;11.30;;;6.90;64.80;;;;;;6245440;23;20004;-86
2023/01/29 03:43:35;;;;;;;18.15;10.73;;;7.00;64.80;;;;;;6245561;23;20000;-85
2023/01/29 03:46:13;;;;;;;18.08;11.57;;;7.00;64.80;;;;;;6245388;23;20453;-85
2023/01/29 03:48:43;;;;;;;18.55;10.95;;;7.00;64.90;;;;;;6244399;23;20044;-85
2023/01/29 03:51:32;;;;;;;18.17;11.15;;;7.00;64.70;;;;;;6244936;23;20418;-85
2023/01/29 03:54:13;;;;;;;17.77;10.52;;;7.10;64.60;;;;;;6244885;23;20001;-85
2023/01/29 03:57:01;;;;;;;18.02;10.73;;;7.00;64.60;;;;;;6245416;23;20295;-85
2023/01/29 03:59:30;;;;;;;19.15;11.70;;;7.00;64.60;;;;;;6244707;23;20075;-85
2023/01/29 04:02:04;;;;;;;19.70;11.63;;;7.00;64.50;;;;;;6217931;23;20066;-86
2023/01/29 04:04:33;;;;;;;19.92;11.27;;;7.00;64.50;;;;;;6245318;23;20019;-86
2023/01/29 04:07:12;;;;;;;18.35;10.77;;;7.00;64.50;;;;;;6244387;23;20427;-87
2023/01/29 04:09:57;;;;;;;15.98;10.43;;;7.00;64.50;;;;;;6245446;23;20003;-86
2023/01/29 04:12:29;;;;;;;17.10;10.48;;;7.00;64.30;;;;;;6244808;23;20007;-86
2023/01/29 04:14:59;;;;;;;18.27;11.25;;;7.10;63.70;;;;;;6218412;23;20008;-84
2023/01/29 04:17:31;;;;;;;16.27;10.23;;;7.10;64.10;;;;;;6243883;23;20000;-84
2023/01/29 04:19:59;;;;;;;14.75;9.73;;;7.10;64.20;;;;;;6245073;23;20010;-86
2023/01/29 04:22:35;;;;;;;17.95;11.07;;;7.00;63.70;;;;;;6244653;23;20030;-84
2023/01/29 04:25:16;;;;;;;17.38;10.05;;;7.10;64.00;;;;;;6245652;23;20392;-84
2023/01/29 04:27:56;;;;;;;16.52;10.50;;;7.10;64.00;;;;;;6244148;23;20008;-84
2023/01/29 04:30:32;;;;;;;19.77;10.57;;;7.10;64.10;;;;;;6246724;23;20008;-84
2023/01/29 04:33:22;;;;;;;15.98;10.48;;;7.10;64.10;;;;;;6244898;23;20095;-86
2023/01/29 04:35:48;;;;;;;;;;;7.10;64.10;;;;;;6246951;23;20083;-85
2023/01/29 04:38:50;;;;;;;17.75;10.55;;;7.10;64.00;;;;;;6246053;23;19931;-85
2023/01/29 04:41:34;;;;;;;19.23;10.57;;;7.10;64.00;;;;;;6226921;23;20350;-85
2023/01/29 04:44:21;;;;;;;19.90;11.73;;;7.10;63.90;;;;;;6247080;23;20008;-85
2023/01/29 04:46:47;;;;;;;18.20;11.18;;;7.10;64.00;;;;;;6245019;23;20358;-86
2023/01/29 04:49:33;;;;;;;18.05;11.68;;;7.00;64.20;;;;;;6245290;23;20001;-84
2023/01/29 04:52:31;;;;;;;18.92;11.18;;;7.00;64.20;;;;;;6246144;23;20016;-86
2023/01/29 04:55:11;;;;;;;20.08;11.65;;;7.00;64.10;;;;;;6201537;23;20008;-86
2023/01/29 04:57:49;;;;;;;19.55;12.00;;;7.00;64.50;;;;;;6246512;23;20035;-85
2023/01/29 05:00:26;;;;;;;22.60;13.13;;;7.00;64.40;;;;;;6245602;23;20000;-85
2023/01/29 05:02:52;;;;;;;18.02;11.77;;;7.00;63.80;;;;;;6250339;23;20050;-84
2023/01/29 05:05:19;;;;;;;18.75;10.85;;;7.00;63.80;;;;;;6248034;23;20007;-85
2023/01/29 05:07:46;;;;;;;20.08;11.02;;;7.00;64.30;;;;;;6246905;23;20306;-86
2023/01/29 05:10:14;;;;;;;19.10;11.82;;;7.00;64.40;;;;;;6245611;23;20000;-84
2023/01/29 05:12:44;;;;;;;18.50;11.32;;;7.00;64.30;;;;;;6247090;23;20008;-85
2023/01/29 05:15:19;;;;;;;19.20;11.77;;;7.00;64.20;;;;;;6248281;23;19999;-85
2023/01/29 05:17:44;;;;;;;19.02;12.05;;;7.00;64.20;;;;;;6253865;23;19996;-85
2023/01/29 05:20:11;;;;;;;18.30;11.25;;;7.00;63.60;;;;;;6250902;23;20058;-85
2023/01/29 05:22:39;;;;;;;22.83;12.18;;;7.10;63.70;;;;;;6261498;23;20089;-84
2023/01/29 05:25:20;;;;;;;18.17;11.02;;;7.10;64.10;;;;;;6248677;23;20000;-86
2023/01/29 05:28:04;;;;;;;20.55;12.35;;;7.10;64.30;;;;;;6248586;23;20007;-85
2023/01/29 05:30:35;;;;;;;20.48;12.13;;;7.10;64.40;;;;;;6245879;23;20008;-86
2023/01/29 05:33:01;;;;;;;19.70;11.50;;;7.10;64.30;;;;;;6246399;23;20003;-87
2023/01/29 05:35:27;;;;;;;18.90;12.13;;;7.10;63.80;;;;;;6246256;23;20004;-87
2023/01/29 05:37:54;;;;;;;23.25;12.38;;;7.10;63.70;;;;;;6246413;23;19996;-86
2023/01/29 05:40:20;;;;;;;17.13;11.40;;;7.20;64.30;;;;;;6245387;23;20063;-86
2023/01/29 05:42:46;;;;;;;24.85;13.15;;;7.10;63.80;;;;;;6248129;23;20007;-87
2023/01/29 05:45:12;;;;;;;20.52;12.70;;;7.10;64.10;;;;;;6247462;23;20004;-86
2023/01/29 05:47:37;;;;;;;24.75;12.00;;;7.00;64.30;;;;;;6256740;23;20011;-85
2023/01/29 05:50:04;;;;;;;22.83;12.68;;;7.00;64.10;;;;;;6235686;23;20134;-86
2023/01/29 05:52:30;;;;;;;24.48;13.40;;;7.00;64.70;;;;;;6262719;23;20012;-83
2023/01/29 05:54:56;;;;;;;22.77;13.20;;;7.00;64.20;;;;;;6247287;23;20003;-87
2023/01/29 05:57:21;;;;;;;20.83;12.07;;;7.00;64.60;;;;;;6248410;23;20000;-87
2023/01/29 05:59:47;;;;;;;21.05;12.75;;;7.00;64.70;;;;;;6246453;23;19996;-86
2023/01/29 06:02:12;;;;;;;21.95;11.90;;;7.00;64.80;;;;;;6222165;23;20095;-88
2023/01/29 06:04:38;;;;;;;19.52;12.18;;;7.00;64.80;;;;;;6248373;23;20000;-87
2023/01/29 06:07:04;;;;;;;19.83;12.27;;;7.10;64.60;;;;;;6249519;23;20422;-87
2023/01/29 06:09:29;;;;;;;22.40;13.25;;;7.10;64.70;;;;;;6247817;23;20008;-86
2023/01/29 06:11:55;;;;;;;19.88;12.18;;;7.10;64.40;;;;;;6248073;23;20004;-87
2023/01/29 06:14:21;;;;;;;22.58;12.80;;;7.00;64.70;;;;;;6247538;23;19996;-86
2023/01/29 06:16:46;;;;;;;18.98;12.25;;;7.00;64.70;;;;;;6250144;23;20433;-88
2023/01/29 06:19:12;;;;;;;21.17;13.10;;;7.00;64.70;;;;;;6222153;23;20128;-87
2023/01/29 06:21:38;;;;;;;17.45;11.23;;;7.00;64.60;;;;;;6248704;23;20007;-87
2023/01/29 06:24:04;;;;;;;21.88;12.35;;;7.10;64.90;;;;;;6246582;23;20004;-86
2023/01/29 06:26:29;;;;;;;19.85;11.75;;;7.00;64.80;;;;;;6247742;23;20027;-87
2023/01/29 06:28:55;;;;;;;20.38;12.05;;;7.00;64.90;;;;;;6247320;23;20000;-87
2023/01/29 06:31:21;;;;;;;21.42;11.98;;;7.00;64.90;;;;;;6247660;23;20007;-87
2023/01/29 06:33:46;;;;;;;20.65;12.00;;;7.10;65.10;;;;;;6249792;23;20007;-86
2023/01/29 06:36:12;;;;;;;19.73;11.93;;;7.00;64.90;;;;;;6265101;23;20000;-90
2023/01/29 06:38:38;;;;;;;19.95;12.02;;;7.10;64.70;;;;;;6268305;23;20004;-89
2023/01/29 06:41:12;;;;;;;20.55;12.00;;;7.00;65.00;;;;;;6271017;22;19992;-91
2023/01/29 06:43:38;;;;;;;21.77;12.27;;;7.10;64.80;;;;;;6271968;22;19988;-89
2023/01/29 06:46:07;;;;;;;25.60;14.50;;;7.10;64.80;;;;;;6272071;22;19984;-91
2023/01/29 06:48:32;;;;;;;20.38;12.43;;;7.00;64.50;;;;;;6249719;23;20011;-86
2023/01/29 06:51:03;;;;;;;22.42;12.93;;;6.90;64.90;;;;;;6245879;23;20430;-85
2023/01/29 06:53:29;;;;;;;21.65;11.95;;;7.00;64.80;;;;;;6243585;23;20035;-86
2023/01/29 06:55:55;;;;;;;19.38;12.57;;;7.00;64.80;;;;;;6244011;23;20000;-87
2023/01/29 06:58:21;;;;;;;18.42;12.32;;;7.00;64.80;;;;;;6245416;23;19997;-78
2023/01/29 07:00:46;;;;;;;19.33;12.30;;;7.00;64.80;;;;;;6218262;23;20043;-79
2023/01/29 07:03:12;;;;;;;20.65;11.82;;;7.00;64.90;;;;;;6244460;23;20007;-78
2023/01/29 07:05:38;;;;;;;22.15;13.15;;;7.00;65.00;;;;;;6244067;23;20004;-79
2023/01/29 07:08:04;;;;;;;20.20;12.43;;;7.00;64.70;;;;;;6244329;23;20000;-78
2023/01/29 07:10:30;;;;;;;23.75;13.52;;;7.00;64.90;;;;;;6245210;23;20045;-80
2023/01/29 07:12:57;;;;;;;20.80;12.02;;;7.00;65.30;;;;;;6243778;23;20000;-84
2023/01/29 07:15:23;;;;;;;20.52;12.00;;;7.00;65.20;;;;;;6244685;23;19996;-84
2023/01/29 07:18:15;;;;;;;21.48;12.75;;;7.00;65.20;;;;;;6245233;23;20071;-84
2023/01/29 07:20:41;;;;;;;20.90;11.70;;;7.00;65.00;;;;;;6240005;23;20091;-85
2023/01/29 07:23:12;;;;;;;22.58;13.20;;;7.00;65.10;;;;;;6244026;23;20000;-85
2023/01/29 07:25:39;;;;;;;19.30;11.90;;;7.10;65.20;;;;;;6217495;23;20087;-87
2023/01/29 07:28:05;;;;;;;24.27;12.80;;;7.20;64.50;;;;;;6245380;23;20309;-85
2023/01/29 07:30:30;;;;;;;20.23;12.63;;;7.20;64.50;;;;;;6245872;23;20035;-86
2023/01/29 07:33:09;;;;;;;22.63;12.75;;;7.20;64.80;;;;;;6245256;23;20004;-85
2023/01/29 07:35:37;;;;;;;23.65;12.02;;;7.20;65.40;;;;;;6244815;23;20080;-84
2023/01/29 07:38:03;;;;;;;19.50;12.40;;;7.20;65.00;;;;;;6218148;23;20097;-85
2023/01/29 07:40:29;;;;;;;20.17;11.65;;;7.20;65.80;;;;;;6245240;23;20412;-85
2023/01/29 07:43:04;;;;;;;21.48;12.65;;;7.30;65.00;;;;;;6244439;23;20082;-87
2023/01/29 07:45:32;;;;;;;20.55;12.63;;;7.30;65.00;;;;;;6243224;23;20074;-86
2023/01/29 07:47:58;;;;;;;19.58;12.48;;;7.30;65.00;;;;;;6244789;23;20829;-86
2023/01/29 07:50:25;;;;;;;21.05;13.45;;;7.30;65.00;;;;;;6218204;23;20012;-87
2023/01/29 07:52:53;;;;;;;19.95;12.00;;;7.30;64.80;;;;;;6244510;23;20016;-85
2023/01/29 07:55:18;;;;;;;26.33;14.05;;;7.40;64.80;;;;;;6245102;23;20023;-93
2023/01/29 07:57:44;;;;;;;20.88;11.95;;;7.30;64.80;;;;;;6245005;23;19996;-83
2023/01/29 08:00:10;;;;;;;21.60;12.60;;;7.40;65.00;;;;;;6243444;23;20035;-85
2023/01/29 08:02:36;;;;;;;24.25;14.15;;;7.30;64.90;;;;;;6244320;23;20004;-85
2023/01/29 08:05:02;;;;;;;21.48;12.90;;;7.40;64.90;;;;;;6247762;23;20004;-84
2023/01/29 08:07:28;;;;;;;23.08;14.00;;;7.40;64.70;;;;;;6247394;23;20560;-77
2023/01/29 08:09:54;;;;;;;24.30;14.25;;;7.40;64.90;;;;;;6247190;23;20028;-77
2023/01/29 08:12:19;;;;;;;22.83;13.55;;;7.40;65.00;;;;;;6246366;23;20028;-77
2023/01/29 08:14:45;;;;;;;21.52;12.80;;;7.30;64.90;;;;;;6247228;23;20031;-77
2023/01/29 08:17:11;;;;;;;23.67;13.38;;;7.30;64.90;;;;;;6247762;23;20000;-77
2023/01/29 08:19:37;;;;;;;19.83;12.75;;;7.40;65.00;;;;;;6247064;23;19996;-85
2023/01/29 08:22:04;;;;;;;20.13;12.48;;;7.40;65.10;;;;;;6246766;23;20007;-85
2023/01/29 08:24:29;;;;;;;22.13;13.43;;;7.40;65.00;;;;;;6247512;23;20004;-85
2023/01/29 08:26:55;;;;;;;21.25;13.38;;;7.40;65.00;;;;;;6247520;23;20621;-85
2023/01/29 08:29:21;;;;;;;21.77;13.45;;;7.40;65.00;;;;;;6246722;23;20000;-85
2023/01/29 08:31:47;;;;;;;20.60;12.98;;;7.50;65.10;;;;;;6247552;23;20004;-85
2023/01/29 08:34:12;;;;;;;21.08;13.13;;;7.50;65.90;;;;;;6247494;23;20433;-85
2023/01/29 08:36:38;;;;;;;22.90;13.40;;;7.40;65.20;;;;;;6247835;23;20408;-85
2023/01/29 08:39:04;;;;;;;22.67;13.60;;;7.50;65.10;;;;;;6247819;23;20001;-85
2023/01/29 08:41:29;;;;;;;21.42;13.30;;;7.50;65.20;;;;;;6247101;23;20011;-86
2023/01/29 08:43:56;;;;;;;23.65;14.40;;;7.60;65.30;;;;;;6247430;23;20004;-85
2023/01/29 08:46:22;;;;;;;22.92;13.30;;;7.60;64.70;;;;;;6247377;23;20517;-86
2023/01/29 08:48:48;;;;;;;21.38;13.60;;;7.60;64.60;;;;;;6247737;23;20035;-85
2023/01/29 08:51:14;;;;;;;18.55;12.07;;;7.70;64.60;;;;;;6247885;23;20083;-85
2023/01/29 08:53:39;;;;;;;19.65;12.18;;;7.80;64.50;;;;;;6247453;23;20563;-85
2023/01/29 08:56:05;;;;;;;24.05;14.10;;;7.90;64.60;;;;;;6220336;23;20012;-85
2023/01/29 08:58:31;;;;;;;23.00;12.32;;;8.00;63.70;;;;;;6247620;23;20437;-85
2023/01/29 09:01:05;;;;;;;16.65;10.95;;;8.20;63.70;;;;;;6247351;23;20434;-86
2023/01/29 09:03:31;;;;;;;17.90;11.80;;;8.30;63.30;;;;;;6247331;23;20119;-85
2023/01/29 09:05:56;;;;;;;18.13;11.00;;;8.50;62.90;;;;;;6247287;23;20000;-85
2023/01/29 09:08:22;;;;;;;16.35;10.35;;;8.70;62.90;;;;;;6247196;23;20004;-84
2023/01/29 09:10:48;;;;;;;18.20;11.45;;;8.80;62.40;;;;;;6246774;23;20064;-84
2023/01/29 09:13:13;;;;;;;17.77;10.82;;;9.00;61.90;;;;;;6220511;23;20338;-84
2023/01/29 09:15:39;;;;;;;15.70;10.00;;;9.20;61.50;;;;;;6247260;23;20083;-84
2023/01/29 09:18:05;;;;;;;15.35;9.75;;;9.20;60.40;;;;;;6246995;23;20000;-85
2023/01/29 09:20:31;;;;;;;15.90;10.43;;;9.30;60.00;;;;;;6247216;23;20506;-85
2023/01/29 09:22:57;;;;;;;13.95;8.80;;;9.40;59.30;;;;;;6246780;23;20024;-85
2023/01/29 09:25:23;;;;;;;15.18;9.90;;;9.60;59.90;;;;;;6246959;23;20318;-85
2023/01/29 09:27:49;;;;;;;15.35;9.50;;;9.70;59.50;;;;;;6247367;23;20074;-85
2023/01/29 09:30:16;;;;;;;14.18;8.82;;;9.90;59.50;;;;;;6247007;23;20000;-85
2023/01/29 09:32:41;;;;;;;13.75;9.05;;;10.00;59.30;;;;;;6246832;23;20004;-85
2023/01/29 09:35:08;;;;;;;14.50;9.23;;;10.20;59.10;;;;;;6247034;23;20108;-85
2023/01/29 09:37:33;;;;;;;14.13;8.88;;;10.30;58.40;;;;;;6246857;23;20023;-84
2023/01/29 09:39:59;;;;;;;15.50;9.05;;;10.40;58.90;;;;;;6246012;23;20493;-85
2023/01/29 09:42:42;;;;;;;14.75;8.88;;;10.50;58.40;;;;;;6246756;23;20083;-84
2023/01/29 09:45:14;;;;;;;14.80;9.18;;;10.70;58.10;;;;;;6244483;23;20077;-85
2023/01/29 09:47:40;;;;;;;14.70;8.82;;;10.80;57.70;;;;;;6244571;23;20464;-88
2023/01/29 09:50:40;;;;;;;15.15;9.65;;;10.90;58.20;;;;;;6213406;23;20038;-86
2023/01/29 09:53:33;;;;;;;15.48;8.93;;;11.20;58.80;;;;;;6188891;23;20438;-87
2023/01/29 09:56:05;;;;;;;13.90;8.90;;;11.30;58.60;;;;;;6245396;23;20002;-87
2023/01/29 09:58:37;;;;;;;14.00;9.07;;;11.40;58.50;;;;;;6246191;23;19996;-87
2023/01/29 10:02:00;;;;;;;16.65;9.82;;;11.50;58.20;;;;;;6219028;23;20009;-85
2023/01/29 10:04:50;;;;;;;13.27;8.80;;;11.60;58.10;;;;;;6127185;23;20069;-83
2023/01/29 10:07:41;;;;;;;15.57;10.10;;;11.60;57.80;;;;;;6152375;23;20009;-83
2023/01/29 10:10:22;;;;;;;13.93;9.25;;;11.80;57.50;;;;;;6239382;23;20091;-82
2023/01/29 10:13:04;;;;;;;12.80;8.68;;;11.80;57.80;;;;;;6245689;23;20426;-80
2023/01/29 10:15:51;;;;;;;12.60;8.48;;;11.80;58.00;;;;;;6244897;23;20035;-82
2023/01/29 10:18:48;;;;;;;16.05;9.27;;;11.90;57.60;;;;;;6244964;23;19996;-82
2023/01/29 10:21:33;;;;;;;13.57;8.77;;;12.00;57.70;;;;;;6245801;23;20095;-84
2023/01/29 10:24:29;;;;;;;11.60;7.82;;;12.10;57.70;;;;;;6215795;23;20023;-83
2023/01/29 10:26:56;;;;;;;14.35;9.45;;;12.30;57.50;;;;;;6242119;23;20015;-83
2023/01/29 10:29:22;;;;;;;12.00;8.10;;;12.50;57.40;;;;;;6243703;23;20011;-77
2023/01/29 10:32:03;;;;;;;10.32;7.18;;;12.60;56.90;;;;;;6244846;23;20473;-77
2023/01/29 10:34:49;;;;;;;18.75;8.65;;;12.80;56.80;;;;;;6216592;23;20464;-78
2023/01/29 10:37:23;;;;;;;17.80;9.10;;;12.90;59.00;;;;;;6245270;23;20028;-79
2023/01/29 10:39:49;;;;;;;11.57;7.85;;;13.10;57.30;;;;;;6244252;23;20110;-78
2023/01/29 10:42:27;;;;;;;11.70;7.32;;;13.30;56.50;;;;;;6243422;23;20000;-78
2023/01/29 10:45:08;;;;;;;12.70;8.52;;;13.40;54.90;;;;;;6242621;23;20049;-78
2023/01/29 10:47:47;;;;;;;14.13;8.30;;;13.50;54.70;;;;;;6243842;23;20000;-78
2023/01/29 10:50:17;;;;;;;10.48;7.35;;;13.60;53.70;;;;;;6245092;23;20390;-78
2023/01/29 10:53:02;;;;;;;10.45;7.18;;;13.70;53.40;;;;;;6242216;23;20016;-77
2023/01/29 10:55:59;;;;;;;10.15;7.00;;;13.90;53.60;;;;;;6244544;23;20035;-77
2023/01/29 10:58:35;;;;;;;9.73;6.65;;;14.10;53.10;;;;;;6244186;23;19996;-83
2023/01/29 11:01:01;;;;;;;11.38;7.95;;;14.10;52.10;;;;;;6244017;23;20018;-84
2023/01/29 11:03:29;;;;;;;9.52;7.55;;;14.30;51.90;;;;;;6245241;23;20000;-84
2023/01/29 11:06:01;;;;;;;9.40;6.93;;;14.40;51.60;;;;;;6243532;23;20000;-84
2023/01/29 11:09:03;;;;;;;11.43;7.85;;;14.40;50.50;;;;;;6245217;23;20004;-84
2023/01/29 11:11:52;;;;;;;9.35;7.10;;;14.40;50.50;;;;;;6210334;23;20012;-83
2023/01/29 11:14:25;;;;;;;9.55;6.50;;;14.50;50.10;;;;;;6244422;23;20004;-84
2023/01/29 11:16:51;;;;;;;9.65;6.75;;;14.60;49.80;;;;;;6245348;23;20004;-84
2023/01/29 11:19:20;;;;;;;11.52;7.40;;;14.80;49.00;;;;;;6244772;23;20296;-83
2023/01/29 11:22:00;;;;;;;10.43;7.05;;;14.70;47.80;;;;;;6244179;23;19997;-83
2023/01/29 11:24:26;;;;;;;11.85;7.68;;;14.60;48.20;;;;;;6244983;23;20006;-83
2023/01/29 11:26:58;;;;;;;9.27;6.95;;;14.50;49.20;;;;;;6244877;23;20006;-83
2023/01/29 11:29:26;;;;;;;9.95;6.38;;;14.50;49.10;;;;;;6244034;23;20000;-83
2023/01/29 11:31:52;;;;;;;10.48;6.78;;;14.60;49.30;;;;;;6244103;23;20004;-82
2023/01/29 11:34:21;;;;;;;9.68;6.50;;;14.80;48.60;;;;;;6243447;23;20083;-82
2023/01/29 11:37:00;;;;;;;14.00;7.53;;;14.90;48.50;;;;;;6244767;23;20004;-83
2023/01/29 11:39:27;;;;;;;10.30;7.82;;;15.10;48.70;;;;;;6245262;23;20003;-82
2023/01/29 11:42:10;;;;;;;10.90;7.22;;;15.30;47.20;;;;;;6219487;23;20327;-85
2023/01/29 11:44:38;;;;;;;10.65;7.07;;;15.30;47.50;;;;;;6245430;23;20000;-79
2023/01/29 11:47:11;;;;;;;11.55;7.55;;;15.50;47.70;;;;;;6246020;23;20004;-79
2023/01/29 11:49:38;;;;;;;10.52;7.50;;;15.60;47.20;;;;;;6219841;23;20365;-79
2023/01/29 11:52:14;;;;;;;12.02;8.25;;;15.90;46.90;;;;;;6245050;23;20012;-78
2023/01/29 11:54:44;;;;;;;10.20;7.85;;;16.10;42.70;;;;;;6245480;23;20000;-83
2023/01/29 11:57:36;;;;;;;10.65;8.13;;;16.40;45.90;;;;;;6245479;23;19992;-83
2023/01/29 12:00:24;;;;;;;12.90;9.13;;;17.30;45.10;;;;;;6235305;23;20008;-83
2023/01/29 12:02:59;;;;;;;11.30;8.38;;;18.60;43.20;;;;;;6246319;23;19996;-83
2023/01/29 12:05:26;;;;;;;10.23;8.48;;;;;;;;;;6245496;23;19996;-83
2023/01/29 12:08:00;;;;;;;11.30;8.73;;;20.50;39.50;;;;;;6245067;23;20433;-83
2023/01/29 12:10:40;;;;;;;14.07;8.95;;;21.30;38.70;;;;;;6246081;23;20059;-82
2023/01/29 12:13:08;;;;;;;11.77;8.90;;;22.10;37.60;;;;;;6245727;23;20422;-83
2023/01/29 12:15:38;;;;;;;12.25;9.13;;;22.70;36.40;;;;;;6246194;23;20426;-84
2023/01/29 12:18:07;;;;;;;13.82;9.82;;;23.20;34.90;;;;;;6247141;23;19992;-83
2023/01/29 12:20:57;;;;;;;12.40;8.82;;;23.50;33.00;;;;;;6246267;23;20035;-82
2023/01/29 12:23:39;;;;;;;10.57;8.70;;;23.60;32.50;;;;;;6245405;23;20027;-83
2023/01/29 12:26:14;;;;;;;11.57;9.13;;;23.60;33.10;;;;;;6246790;23;20319;-84
2023/01/29 12:29:12;;;;;;;13.40;10.32;;;23.70;33.50;;;;;;6246714;23;20000;-84
2023/01/29 12:32:16;;;;;;;10.88;8.60;;;23.90;32.80;;;;;;6207079;23;20044;-86
2023/01/29 12:34:51;;;;;;;11.45;8.57;;;23.60;32.60;;;;;;6246396;23;20004;-85
2023/01/29 12:37:20;;;;;;;11.07;9.20;;;23.20;32.30;;;;;;6245677;23;20391;-85
2023/01/29 12:39:45;;;;;;;12.43;9.95;;;23.20;32.80;;;;;;6245882;23;20414;-84
2023/01/29 12:42:17;;;;;;;12.02;9.30;;;23.00;31.80;;;;;;6246159;23;20075;-85
2023/01/29 12:44:47;;;;;;;11.07;8.90;;;22.70;32.70;;;;;;6246209;23;20003;-85
2023/01/29 12:47:22;;;;;;;11.23;8.80;;;22.70;33.40;;;;;;6246399;23;20019;-84
2023/01/29 12:49:55;;;;;;;10.80;9.23;;;22.50;32.90;;;;;;6245673;23;20000;-85
2023/01/29 12:52:45;;;;;;;12.00;9.32;;;22.40;33.50;;;;;;6244712;23;20021;-85
2023/01/29 12:55:23;;;;;;;9.98;8.48;;;22.10;33.70;;;;;;6247354;23;20008;-85
2023/01/29 12:57:53;;;;;;;11.60;9.15;;;21.00;34.30;;;;;;6245923;23;20075;-83
2023/01/29 13:00:22;;;;;;;11.32;8.80;;;20.90;35.30;;;;;;6245927;23;20079;-83
2023/01/29 13:03:15;;;;;;;14.95;9.50;;;21.00;35.40;;;;;;6245637;23;20091;-85
2023/01/29 13:06:07;;;;;;;11.98;9.10;;;20.90;35.10;;;;;;6218493;23;20014;-84
2023/01/29 13:08:54;;;;;;;12.40;8.88;;;20.90;35.10;;;;;;6243478;23;20314;-83
2023/01/29 13:11:25;;;;;;;14.32;9.90;;;20.70;35.10;;;;;;6244781;23;20414;-83
2023/01/29 13:13:59;;;;;;;12.82;10.40;;;20.60;35.00;;;;;;6245585;23;20395;-84
2023/01/29 13:16:32;;;;;;;13.10;10.13;;;20.70;35.40;;;;;;6244842;23;20031;-83
2023/01/29 13:19:13;;;;;;;12.50;10.00;;;20.90;35.50;;;;;;6246018;23;20001;-83
2023/01/29 13:21:42;;;;;;;13.98;11.00;;;21.10;34.50;;;;;;6244031;23;20422;-83
2023/01/29 13:24:15;;;;;;;13.75;10.07;;;21.20;33.80;;;;;;6244099;23;20047;-83
2023/01/29 13:26:45;;;;;;;14.43;10.70;;;21.20;34.50;;;;;;6244154;23;20031;-83
2023/01/29 13:29:26;;;;;;;13.13;9.00;;;21.20;34.30;;;;;;6243357;23;20007;-83
2023/01/29 13:31:54;;;;;;;16.15;11.60;;;20.70;34.20;;;;;;6216347;23;20051;-83